sensor_id;sensor_type;location;lat;lon;timestamp;P1;durP1;ratioP1;P2;durP2;ratioP2
6823;SDS011;58633;49.470;11.004;2023-04-03T00:00:06;2.00;;;1.83;;
6823;SDS011;58633;49.470;11.004;2023-04-03T00:02:33;2.37;;;2.00;;
6823;SDS011;58633;49.470;11.004;2023-04-03T00:04:59;2.00;;;1.80;;
6823;SDS011;58633;49.470;11.004;2023-04-03T00:07:25;1.93;;;1.80;;
6823;SDS011;58633;49.470;11.004;2023-04-03T00:09:51;2.00;;;1.90;;
6823;SDS011;58633;49.470;11.004;2023-04-03T00:12:17;2.30;;;2.10;;
6823;SDS011;58633;49.470;11.004;2023-04-03T00:14:42;1.80;;;1.70;;
6823;SDS011;58633;49.470;11.004;2023-04-03T00:17:08;3.17;;;1.80;;
6823;SDS011;58633;49.470;11.004;2023-04-03T00:19:34;4.07;;;2.00;;
6823;SDS011;58633;49.470;11.004;2023-04-03T00:22:00;2.40;;;1.90;;
6823;SDS011;58633;49.470;11.004;2023-04-03T00:24:26;1.80;;;1.70;;
6823;SDS011;58633;49.470;11.004;2023-04-03T00:26:51;2.93;;;1.70;;
6823;SDS011;58633;49.470;11.004;2023-04-03T00:29:17;2.10;;;1.93;;
6823;SDS011;58633;49.470;11.004;2023-04-03T00:31:42;2.33;;;1.90;;
6823;SDS011;58633;49.470;11.004;2023-04-03T00:34:08;2.43;;;1.70;;
6823;SDS011;58633;49.470;11.004;2023-04-03T00:36:34;2.20;;;1.67;;
6823;SDS011;58633;49.470;11.004;2023-04-03T00:39:00;1.80;;;1.70;;
6823;SDS011;58633;49.470;11.004;2023-04-03T00:41:28;2.10;;;1.83;;
6823;SDS011;58633;49.470;11.004;2023-04-03T00:43:54;2.53;;;1.93;;
6823;SDS011;58633;49.470;11.004;2023-04-03T00:46:20;1.90;;;1.80;;
6823;SDS011;58633;49.470;11.004;2023-04-03T00:48:47;2.67;;;1.90;;
6823;SDS011;58633;49.470;11.004;2023-04-03T00:51:19;2.47;;;1.70;;
6823;SDS011;58633;49.470;11.004;2023-04-03T00:53:48;2.23;;;2.03;;
6823;SDS011;58633;49.470;11.004;2023-04-03T00:56:17;2.27;;;1.80;;
6823;SDS011;58633;49.470;11.004;2023-04-03T00:58:48;1.90;;;1.80;;
6823;SDS011;58633;49.470;11.004;2023-04-03T01:01:25;3.53;;;2.10;;
6823;SDS011;58633;49.470;11.004;2023-04-03T01:03:52;3.00;;;2.10;;
6823;SDS011;58633;49.470;11.004;2023-04-03T01:06:20;2.63;;;2.00;;
6823;SDS011;58633;49.470;11.004;2023-04-03T01:08:52;1.83;;;1.70;;
6823;SDS011;58633;49.470;11.004;2023-04-03T01:11:27;1.90;;;1.80;;
6823;SDS011;58633;49.470;11.004;2023-04-03T01:13:53;2.00;;;1.90;;
6823;SDS011;58633;49.470;11.004;2023-04-03T01:16:20;2.37;;;2.17;;
6823;SDS011;58633;49.470;11.004;2023-04-03T01:18:49;2.20;;;2.00;;
6823;SDS011;58633;49.470;11.004;2023-04-03T01:26:34;2.40;;;1.80;;
6823;SDS011;58633;49.470;11.004;2023-04-03T01:29:00;1.87;;;1.77;;
6823;SDS011;58633;49.470;11.004;2023-04-03T01:34:18;2.53;;;2.17;;
6823;SDS011;58633;49.470;11.004;2023-04-03T01:36:44;2.00;;;1.90;;
6823;SDS011;58633;49.470;11.004;2023-04-03T01:39:09;3.47;;;1.70;;
6823;SDS011;58633;49.470;11.004;2023-04-03T01:41:36;2.00;;;1.90;;
6823;SDS011;58633;49.470;11.004;2023-04-03T01:44:07;2.10;;;2.00;;
6823;SDS011;58633;49.470;11.004;2023-04-03T01:46:36;2.20;;;1.90;;
6823;SDS011;58633;49.470;11.004;2023-04-03T01:49:11;2.03;;;1.93;;
6823;SDS011;58633;49.470;11.004;2023-04-03T01:51:37;2.87;;;2.10;;
6823;SDS011;58633;49.470;11.004;2023-04-03T01:54:03;2.00;;;1.90;;
6823;SDS011;58633;49.470;11.004;2023-04-03T01:56:32;2.60;;;2.10;;
6823;SDS011;58633;49.470;11.004;2023-04-03T01:58:58;6.30;;;1.93;;
6823;SDS011;58633;49.470;11.004;2023-04-03T02:01:24;2.10;;;1.90;;
6823;SDS011;58633;49.470;11.004;2023-04-03T02:03:50;3.23;;;1.83;;
6823;SDS011;58633;49.470;11.004;2023-04-03T02:06:16;2.30;;;1.90;;
6823;SDS011;58633;49.470;11.004;2023-04-03T02:08:42;2.20;;;1.90;;
6823;SDS011;58633;49.470;11.004;2023-04-03T02:11:08;1.80;;;1.70;;
6823;SDS011;58633;49.470;11.004;2023-04-03T02:13:34;2.47;;;2.00;;
6823;SDS011;58633;49.470;11.004;2023-04-03T02:16:05;2.13;;;1.90;;
6823;SDS011;58633;49.470;11.004;2023-04-03T02:18:32;1.90;;;1.80;;
6823;SDS011;58633;49.470;11.004;2023-04-03T02:20:58;1.93;;;1.70;;
6823;SDS011;58633;49.470;11.004;2023-04-03T02:23:23;2.07;;;1.90;;
6823;SDS011;58633;49.470;11.004;2023-04-03T02:25:49;2.00;;;1.90;;
6823;SDS011;58633;49.470;11.004;2023-04-03T02:28:15;1.70;;;1.60;;
6823;SDS011;58633;49.470;11.004;2023-04-03T02:30:41;2.00;;;1.80;;
6823;SDS011;58633;49.470;11.004;2023-04-03T02:33:06;2.00;;;1.83;;
6823;SDS011;58633;49.470;11.004;2023-04-03T02:35:32;2.10;;;1.90;;
6823;SDS011;58633;49.470;11.004;2023-04-03T02:37:57;1.70;;;1.60;;
6823;SDS011;58633;49.470;11.004;2023-04-03T02:40:23;1.90;;;1.70;;
6823;SDS011;58633;49.470;11.004;2023-04-03T02:42:48;2.47;;;1.50;;
6823;SDS011;58633;49.470;11.004;2023-04-03T02:45:14;3.23;;;2.00;;
6823;SDS011;58633;49.470;11.004;2023-04-03T02:47:40;1.80;;;1.70;;
6823;SDS011;58633;49.470;11.004;2023-04-03T02:50:06;2.23;;;2.03;;
6823;SDS011;58633;49.470;11.004;2023-04-03T02:52:31;3.23;;;2.00;;
6823;SDS011;58633;49.470;11.004;2023-04-03T02:54:57;2.20;;;2.00;;
6823;SDS011;58633;49.470;11.004;2023-04-03T02:57:23;1.87;;;1.77;;
6823;SDS011;58633;49.470;11.004;2023-04-03T02:59:52;3.30;;;2.00;;
6823;SDS011;58633;49.470;11.004;2023-04-03T03:02:18;2.00;;;1.90;;
6823;SDS011;58633;49.470;11.004;2023-04-03T03:04:44;2.60;;;2.10;;
6823;SDS011;58633;49.470;11.004;2023-04-03T03:07:10;2.07;;;1.87;;
6823;SDS011;58633;49.470;11.004;2023-04-03T03:09:36;2.83;;;2.10;;
6823;SDS011;58633;49.470;11.004;2023-04-03T03:12:02;2.97;;;2.10;;
6823;SDS011;58633;49.470;11.004;2023-04-03T03:14:28;4.63;;;1.93;;
6823;SDS011;58633;49.470;11.004;2023-04-03T03:16:54;3.20;;;2.10;;
6823;SDS011;58633;49.470;11.004;2023-04-03T03:19:20;2.40;;;2.20;;
6823;SDS011;58633;49.470;11.004;2023-04-03T03:21:46;4.07;;;2.50;;
6823;SDS011;58633;49.470;11.004;2023-04-03T03:24:12;3.83;;;2.50;;
6823;SDS011;58633;49.470;11.004;2023-04-03T03:26:37;2.57;;;2.37;;
6823;SDS011;58633;49.470;11.004;2023-04-03T03:29:03;3.63;;;2.17;;
6823;SDS011;58633;49.470;11.004;2023-04-03T03:31:29;4.10;;;2.20;;
6823;SDS011;58633;49.470;11.004;2023-04-03T03:33:55;2.13;;;1.90;;
6823;SDS011;58633;49.470;11.004;2023-04-03T03:36:20;2.67;;;2.17;;
6823;SDS011;58633;49.470;11.004;2023-04-03T03:38:46;2.47;;;2.03;;
6823;SDS011;58633;49.470;11.004;2023-04-03T03:41:12;3.03;;;2.20;;
6823;SDS011;58633;49.470;11.004;2023-04-03T03:43:38;3.50;;;2.20;;
6823;SDS011;58633;49.470;11.004;2023-04-03T03:46:04;2.80;;;2.17;;
6823;SDS011;58633;49.470;11.004;2023-04-03T03:48:29;3.00;;;2.00;;
6823;SDS011;58633;49.470;11.004;2023-04-03T03:50:55;2.60;;;2.37;;
6823;SDS011;58633;49.470;11.004;2023-04-03T03:53:21;2.40;;;2.20;;
6823;SDS011;58633;49.470;11.004;2023-04-03T03:55:47;2.47;;;2.27;;
6823;SDS011;58633;49.470;11.004;2023-04-03T03:58:13;3.77;;;2.50;;
6823;SDS011;58633;49.470;11.004;2023-04-03T04:00:38;3.57;;;2.27;;
6823;SDS011;58633;49.470;11.004;2023-04-03T04:03:04;2.30;;;2.07;;
6823;SDS011;58633;49.470;11.004;2023-04-03T04:05:30;2.67;;;2.40;;
6823;SDS011;58633;49.470;11.004;2023-04-03T04:07:56;2.60;;;2.40;;
6823;SDS011;58633;49.470;11.004;2023-04-03T04:10:21;2.47;;;2.27;;
6823;SDS011;58633;49.470;11.004;2023-04-03T04:12:48;3.30;;;2.50;;
6823;SDS011;58633;49.470;11.004;2023-04-03T04:15:14;3.50;;;2.60;;
6823;SDS011;58633;49.470;11.004;2023-04-03T04:17:39;2.83;;;2.60;;
6823;SDS011;58633;49.470;11.004;2023-04-03T04:20:05;2.60;;;2.27;;
6823;SDS011;58633;49.470;11.004;2023-04-03T04:22:31;4.30;;;2.80;;
6823;SDS011;58633;49.470;11.004;2023-04-03T04:24:57;2.97;;;2.70;;
6823;SDS011;58633;49.470;11.004;2023-04-03T04:27:23;3.07;;;2.60;;
6823;SDS011;58633;49.470;11.004;2023-04-03T04:29:49;3.67;;;2.43;;
6823;SDS011;58633;49.470;11.004;2023-04-03T04:32:14;3.37;;;2.50;;
6823;SDS011;58633;49.470;11.004;2023-04-03T04:34:40;2.67;;;2.20;;
6823;SDS011;58633;49.470;11.004;2023-04-03T04:37:06;4.20;;;2.63;;
6823;SDS011;58633;49.470;11.004;2023-04-03T04:39:32;2.90;;;2.60;;
6823;SDS011;58633;49.470;11.004;2023-04-03T04:41:58;3.03;;;2.63;;
6823;SDS011;58633;49.470;11.004;2023-04-03T04:44:23;4.53;;;3.03;;
6823;SDS011;58633;49.470;11.004;2023-04-03T04:46:49;3.33;;;2.90;;
6823;SDS011;58633;49.470;11.004;2023-04-03T04:49:15;4.87;;;2.87;;
6823;SDS011;58633;49.470;11.004;2023-04-03T04:51:40;4.43;;;2.63;;
6823;SDS011;58633;49.470;11.004;2023-04-03T04:54:06;4.40;;;2.50;;
6823;SDS011;58633;49.470;11.004;2023-04-03T04:56:32;4.57;;;2.70;;
6823;SDS011;58633;49.470;11.004;2023-04-03T04:58:57;3.97;;;2.50;;
6823;SDS011;58633;49.470;11.004;2023-04-03T05:01:23;3.33;;;3.00;;
6823;SDS011;58633;49.470;11.004;2023-04-03T05:03:49;3.07;;;2.70;;
6823;SDS011;58633;49.470;11.004;2023-04-03T05:06:15;4.30;;;2.70;;
6823;SDS011;58633;49.470;11.004;2023-04-03T05:08:41;3.70;;;2.90;;
6823;SDS011;58633;49.470;11.004;2023-04-03T05:11:07;3.60;;;2.60;;
6823;SDS011;58633;49.470;11.004;2023-04-03T05:13:33;3.90;;;2.67;;
6823;SDS011;58633;49.470;11.004;2023-04-03T05:15:59;6.03;;;3.27;;
6823;SDS011;58633;49.470;11.004;2023-04-03T05:21:01;4.70;;;3.00;;
6823;SDS011;58633;49.470;11.004;2023-04-03T05:23:27;4.23;;;2.60;;
6823;SDS011;58633;49.470;11.004;2023-04-03T05:25:53;3.00;;;2.70;;
6823;SDS011;58633;49.470;11.004;2023-04-03T05:28:19;3.70;;;2.80;;
6823;SDS011;58633;49.470;11.004;2023-04-03T05:30:45;6.47;;;3.07;;
6823;SDS011;58633;49.470;11.004;2023-04-03T05:33:17;4.23;;;3.30;;
6823;SDS011;58633;49.470;11.004;2023-04-03T05:35:43;3.73;;;3.37;;
6823;SDS011;58633;49.470;11.004;2023-04-03T05:38:09;6.47;;;3.40;;
6823;SDS011;58633;49.470;11.004;2023-04-03T05:40:35;5.17;;;3.60;;
6823;SDS011;58633;49.470;11.004;2023-04-03T05:43:00;6.43;;;3.10;;
6823;SDS011;58633;49.470;11.004;2023-04-03T05:45:26;3.10;;;2.73;;
6823;SDS011;58633;49.470;11.004;2023-04-03T05:47:51;3.10;;;2.80;;
6823;SDS011;58633;49.470;11.004;2023-04-03T05:50:17;3.07;;;2.43;;
6823;SDS011;58633;49.470;11.004;2023-04-03T05:52:44;5.90;;;3.00;;
6823;SDS011;58633;49.470;11.004;2023-04-03T05:55:11;4.27;;;2.83;;
6823;SDS011;58633;49.470;11.004;2023-04-03T05:57:37;3.53;;;2.63;;
6823;SDS011;58633;49.470;11.004;2023-04-03T06:00:06;4.37;;;3.03;;
6823;SDS011;58633;49.470;11.004;2023-04-03T06:02:34;7.60;;;2.90;;
6823;SDS011;58633;49.470;11.004;2023-04-03T06:05:00;4.70;;;2.80;;
6823;SDS011;58633;49.470;11.004;2023-04-03T06:07:26;3.83;;;2.80;;
6823;SDS011;58633;49.470;11.004;2023-04-03T06:09:53;5.43;;;2.70;;
6823;SDS011;58633;49.470;11.004;2023-04-03T06:12:21;3.77;;;2.40;;
6823;SDS011;58633;49.470;11.004;2023-04-03T06:14:46;8.17;;;3.40;;
6823;SDS011;58633;49.470;11.004;2023-04-03T06:17:13;13.43;;;7.20;;
6823;SDS011;58633;49.470;11.004;2023-04-03T06:19:40;42.47;;;18.47;;
6823;SDS011;58633;49.470;11.004;2023-04-03T06:22:05;53.77;;;21.97;;
6823;SDS011;58633;49.470;11.004;2023-04-03T06:24:31;24.53;;;10.43;;
6823;SDS011;58633;49.470;11.004;2023-04-03T06:26:58;58.27;;;21.60;;
6823;SDS011;58633;49.470;11.004;2023-04-03T06:29:24;47.77;;;18.83;;
6823;SDS011;58633;49.470;11.004;2023-04-03T06:31:50;13.63;;;7.90;;
6823;SDS011;58633;49.470;11.004;2023-04-03T06:34:16;10.57;;;4.83;;
6823;SDS011;58633;49.470;11.004;2023-04-03T06:36:43;11.17;;;5.90;;
6823;SDS011;58633;49.470;11.004;2023-04-03T06:39:15;6.80;;;4.40;;
6823;SDS011;58633;49.470;11.004;2023-04-03T06:41:42;10.30;;;6.03;;
6823;SDS011;58633;49.470;11.004;2023-04-03T06:44:08;4.30;;;3.47;;
6823;SDS011;58633;49.470;11.004;2023-04-03T06:46:36;7.47;;;3.90;;
6823;SDS011;58633;49.470;11.004;2023-04-03T06:49:02;3.83;;;2.87;;
6823;SDS011;58633;49.470;11.004;2023-04-03T06:51:29;4.43;;;2.67;;
6823;SDS011;58633;49.470;11.004;2023-04-03T06:53:56;6.23;;;2.90;;
6823;SDS011;58633;49.470;11.004;2023-04-03T06:56:23;3.97;;;2.33;;
6823;SDS011;58633;49.470;11.004;2023-04-03T06:58:51;3.50;;;2.43;;
6823;SDS011;58633;49.470;11.004;2023-04-03T07:01:19;4.83;;;2.80;;
6823;SDS011;58633;49.470;11.004;2023-04-03T07:03:45;4.10;;;2.60;;
6823;SDS011;58633;49.470;11.004;2023-04-03T07:06:14;5.60;;;2.70;;
6823;SDS011;58633;49.470;11.004;2023-04-03T07:08:41;5.67;;;3.50;;
6823;SDS011;58633;49.470;11.004;2023-04-03T07:11:07;5.50;;;3.87;;
6823;SDS011;58633;49.470;11.004;2023-04-03T07:13:34;4.17;;;3.50;;
6823;SDS011;58633;49.470;11.004;2023-04-03T07:16:01;4.63;;;3.33;;
6823;SDS011;58633;49.470;11.004;2023-04-03T07:18:28;4.83;;;3.23;;
6823;SDS011;58633;49.470;11.004;2023-04-03T07:20:54;7.43;;;3.50;;
6823;SDS011;58633;49.470;11.004;2023-04-03T07:23:19;7.20;;;5.27;;
6823;SDS011;58633;49.470;11.004;2023-04-03T07:25:45;11.33;;;7.10;;
6823;SDS011;58633;49.470;11.004;2023-04-03T07:28:12;5.70;;;3.53;;
6823;SDS011;58633;49.470;11.004;2023-04-03T07:30:45;4.43;;;3.30;;
6823;SDS011;58633;49.470;11.004;2023-04-03T07:33:14;4.80;;;3.10;;
6823;SDS011;58633;49.470;11.004;2023-04-03T07:35:41;7.20;;;4.10;;
6823;SDS011;58633;49.470;11.004;2023-04-03T07:38:07;3.87;;;3.30;;
6823;SDS011;58633;49.470;11.004;2023-04-03T07:40:33;4.00;;;3.37;;
6823;SDS011;58633;49.470;11.004;2023-04-03T07:42:59;5.60;;;3.67;;
6823;SDS011;58633;49.470;11.004;2023-04-03T07:45:25;6.30;;;3.87;;
6823;SDS011;58633;49.470;11.004;2023-04-03T07:47:51;7.30;;;4.50;;
6823;SDS011;58633;49.470;11.004;2023-04-03T07:50:17;5.90;;;3.80;;
6823;SDS011;58633;49.470;11.004;2023-04-03T07:52:43;5.87;;;3.90;;
6823;SDS011;58633;49.470;11.004;2023-04-03T07:55:09;4.60;;;2.90;;
6823;SDS011;58633;49.470;11.004;2023-04-03T07:57:35;2.97;;;2.50;;
6823;SDS011;58633;49.470;11.004;2023-04-03T08:00:01;4.57;;;2.73;;
6823;SDS011;58633;49.470;11.004;2023-04-03T08:02:28;3.47;;;2.80;;
6823;SDS011;58633;49.470;11.004;2023-04-03T08:04:53;2.80;;;2.60;;
6823;SDS011;58633;49.470;11.004;2023-04-03T08:07:19;3.93;;;2.77;;
6823;SDS011;58633;49.470;11.004;2023-04-03T08:09:45;5.83;;;2.80;;
6823;SDS011;58633;49.470;11.004;2023-04-03T08:12:11;3.73;;;2.80;;
6823;SDS011;58633;49.470;11.004;2023-04-03T08:14:37;3.80;;;2.67;;
6823;SDS011;58633;49.470;11.004;2023-04-03T08:17:02;5.33;;;3.00;;
6823;SDS011;58633;49.470;11.004;2023-04-03T08:19:30;4.23;;;2.80;;
6823;SDS011;58633;49.470;11.004;2023-04-03T08:21:56;5.90;;;2.70;;
6823;SDS011;58633;49.470;11.004;2023-04-03T08:24:23;2.87;;;2.57;;
6823;SDS011;58633;49.470;11.004;2023-04-03T08:26:49;4.80;;;2.50;;
6823;SDS011;58633;49.470;11.004;2023-04-03T08:29:15;3.73;;;2.50;;
6823;SDS011;58633;49.470;11.004;2023-04-03T08:31:41;4.80;;;2.47;;
6823;SDS011;58633;49.470;11.004;2023-04-03T08:34:07;9.10;;;7.20;;
6823;SDS011;58633;49.470;11.004;2023-04-03T08:36:33;11.70;;;8.57;;
6823;SDS011;58633;49.470;11.004;2023-04-03T08:38:59;4.10;;;2.70;;
6823;SDS011;58633;49.470;11.004;2023-04-03T08:49:30;3.00;;;2.20;;
6823;SDS011;58633;49.470;11.004;2023-04-03T08:51:59;4.17;;;2.40;;
6823;SDS011;58633;49.470;11.004;2023-04-03T08:54:35;4.83;;;2.53;;
6823;SDS011;58633;49.470;11.004;2023-04-03T08:57:13;3.83;;;2.53;;
6823;SDS011;58633;49.470;11.004;2023-04-03T08:59:38;3.77;;;2.77;;
6823;SDS011;58633;49.470;11.004;2023-04-03T09:02:16;3.00;;;2.20;;
6823;SDS011;58633;49.470;11.004;2023-04-03T09:04:49;4.90;;;2.60;;
6823;SDS011;58633;49.470;11.004;2023-04-03T09:07:29;3.40;;;3.10;;
6823;SDS011;58633;49.470;11.004;2023-04-03T09:10:23;6.70;;;2.70;;
6823;SDS011;58633;49.470;11.004;2023-04-03T09:12:54;4.17;;;2.53;;
6823;SDS011;58633;49.470;11.004;2023-04-03T09:15:34;2.33;;;1.93;;
6823;SDS011;58633;49.470;11.004;2023-04-03T09:23:33;2.77;;;2.10;;
6823;SDS011;58633;49.470;11.004;2023-04-03T09:26:05;3.73;;;2.10;;
6823;SDS011;58633;49.470;11.004;2023-04-03T09:28:39;2.07;;;1.60;;
6823;SDS011;58633;49.470;11.004;2023-04-03T09:33:44;3.20;;;1.80;;
6823;SDS011;58633;49.470;11.004;2023-04-03T09:36:11;2.90;;;1.90;;
6823;SDS011;58633;49.470;11.004;2023-04-03T09:38:38;3.47;;;1.90;;
6823;SDS011;58633;49.470;11.004;2023-04-03T09:41:05;10.90;;;5.07;;
6823;SDS011;58633;49.470;11.004;2023-04-03T09:43:37;3.80;;;2.13;;
6823;SDS011;58633;49.470;11.004;2023-04-03T09:46:28;3.67;;;3.10;;
6823;SDS011;58633;49.470;11.004;2023-04-03T09:49:05;4.80;;;3.00;;
6823;SDS011;58633;49.470;11.004;2023-04-03T09:51:31;3.40;;;2.90;;
6823;SDS011;58633;49.470;11.004;2023-04-03T09:53:57;9.83;;;6.20;;
6823;SDS011;58633;49.470;11.004;2023-04-03T09:56:25;10.73;;;6.17;;
6823;SDS011;58633;49.470;11.004;2023-04-03T10:01:30;4.83;;;3.90;;
6823;SDS011;58633;49.470;11.004;2023-04-03T10:04:11;3.80;;;2.30;;
6823;SDS011;58633;49.470;11.004;2023-04-03T10:06:46;2.40;;;2.10;;
6823;SDS011;58633;49.470;11.004;2023-04-03T10:14:30;2.67;;;1.40;;
6823;SDS011;58633;49.470;11.004;2023-04-03T10:22:56;1.70;;;1.43;;
6823;SDS011;58633;49.470;11.004;2023-04-03T10:25:43;2.27;;;1.50;;
6823;SDS011;58633;49.470;11.004;2023-04-03T10:28:31;2.07;;;1.77;;
6823;SDS011;58633;49.470;11.004;2023-04-03T10:33:52;2.20;;;1.53;;
6823;SDS011;58633;49.470;11.004;2023-04-03T10:36:46;1.60;;;1.50;;
6823;SDS011;58633;49.470;11.004;2023-04-03T10:39:30;3.57;;;1.90;;
6823;SDS011;58633;49.470;11.004;2023-04-03T10:50:42;4.17;;;2.20;;
6823;SDS011;58633;49.470;11.004;2023-04-03T10:56:23;2.43;;;2.00;;
6823;SDS011;58633;49.470;11.004;2023-04-03T10:58:57;3.27;;;2.40;;
6823;SDS011;58633;49.470;11.004;2023-04-03T11:01:33;2.47;;;2.27;;
6823;SDS011;58633;49.470;11.004;2023-04-03T11:04:03;2.07;;;1.87;;
6823;SDS011;58633;49.470;11.004;2023-04-03T11:06:32;3.37;;;1.80;;
6823;SDS011;58633;49.470;11.004;2023-04-03T11:09:19;2.70;;;1.67;;
6823;SDS011;58633;49.470;11.004;2023-04-03T11:11:51;2.00;;;1.80;;
6823;SDS011;58633;49.470;11.004;2023-04-03T11:14:27;2.70;;;1.70;;
6823;SDS011;58633;49.470;11.004;2023-04-03T11:16:59;1.60;;;1.50;;
6823;SDS011;58633;49.470;11.004;2023-04-03T11:19:34;2.53;;;1.67;;
6823;SDS011;58633;49.470;11.004;2023-04-03T11:22:12;1.50;;;1.40;;
6823;SDS011;58633;49.470;11.004;2023-04-03T11:27:41;2.33;;;1.80;;
6823;SDS011;58633;49.470;11.004;2023-04-03T11:30:21;1.77;;;1.67;;
6823;SDS011;58633;49.470;11.004;2023-04-03T11:35:45;2.60;;;1.80;;
6823;SDS011;58633;49.470;11.004;2023-04-03T11:38:23;3.58;;;1.85;;
6823;SDS011;58633;49.470;11.004;2023-04-03T11:40:52;3.25;;;1.90;;
6823;SDS011;58633;49.470;11.004;2023-04-03T11:43:24;2.15;;;1.95;;
6823;SDS011;58633;49.470;11.004;2023-04-03T11:46:07;3.05;;;1.83;;
6823;SDS011;58633;49.470;11.004;2023-04-03T11:50:59;2.72;;;1.60;;
6823;SDS011;58633;49.470;11.004;2023-04-03T11:53:37;3.28;;;2.30;;
6823;SDS011;58633;49.470;11.004;2023-04-03T11:56:26;2.63;;;2.00;;
6823;SDS011;58633;49.470;11.004;2023-04-03T12:01:43;3.38;;;2.00;;
6823;SDS011;58633;49.470;11.004;2023-04-03T12:04:18;3.75;;;2.22;;
6823;SDS011;58633;49.470;11.004;2023-04-03T12:09:25;2.53;;;1.50;;
6823;SDS011;58633;49.470;11.004;2023-04-03T12:11:54;2.08;;;1.60;;
6823;SDS011;58633;49.470;11.004;2023-04-03T12:14:22;3.67;;;1.63;;
6823;SDS011;58633;49.470;11.004;2023-04-03T12:16:52;1.63;;;1.48;;
6823;SDS011;58633;49.470;11.004;2023-04-03T12:19:37;2.22;;;1.90;;
6823;SDS011;58633;49.470;11.004;2023-04-03T12:22:12;1.55;;;1.40;;
6823;SDS011;58633;49.470;11.004;2023-04-03T12:24:40;2.20;;;1.70;;
6823;SDS011;58633;49.470;11.004;2023-04-03T12:27:21;2.38;;;1.40;;
6823;SDS011;58633;49.470;11.004;2023-04-03T12:35:34;1.70;;;1.60;;
6823;SDS011;58633;49.470;11.004;2023-04-03T12:43:59;2.72;;;1.40;;
6823;SDS011;58633;49.470;11.004;2023-04-03T12:46:42;2.38;;;1.70;;
6823;SDS011;58633;49.470;11.004;2023-04-03T12:49:24;3.35;;;1.75;;
6823;SDS011;58633;49.470;11.004;2023-04-03T12:52:06;1.70;;;1.58;;
6823;SDS011;58633;49.470;11.004;2023-04-03T12:54:55;3.53;;;1.63;;
6823;SDS011;58633;49.470;11.004;2023-04-03T12:57:25;1.75;;;1.30;;
6823;SDS011;58633;49.470;11.004;2023-04-03T12:59:55;1.58;;;1.20;;
6823;SDS011;58633;49.470;11.004;2023-04-03T13:02:23;3.00;;;1.60;;
6823;SDS011;58633;49.470;11.004;2023-04-03T13:04:54;1.60;;;1.50;;
6823;SDS011;58633;49.470;11.004;2023-04-03T13:07:29;6.78;;;1.83;;
6823;SDS011;58633;49.470;11.004;2023-04-03T13:10:13;5.15;;;2.17;;
6823;SDS011;58633;49.470;11.004;2023-04-03T13:12:47;2.45;;;1.40;;
6823;SDS011;58633;49.470;11.004;2023-04-03T13:15:25;2.33;;;1.60;;
6823;SDS011;58633;49.470;11.004;2023-04-03T13:17:53;1.67;;;1.45;;
6823;SDS011;58633;49.470;11.004;2023-04-03T13:20:27;1.60;;;1.50;;
6823;SDS011;58633;49.470;11.004;2023-04-03T13:23:04;2.03;;;1.48;;
6823;SDS011;58633;49.470;11.004;2023-04-03T13:25:34;2.83;;;1.70;;
6823;SDS011;58633;49.470;11.004;2023-04-03T13:28:03;2.15;;;1.58;;
6823;SDS011;58633;49.470;11.004;2023-04-03T13:30:31;1.73;;;1.63;;
6823;SDS011;58633;49.470;11.004;2023-04-03T13:33:00;2.72;;;1.73;;
6823;SDS011;58633;49.470;11.004;2023-04-03T13:38:26;2.55;;;1.75;;
6823;SDS011;58633;49.470;11.004;2023-04-03T13:40:55;1.90;;;1.45;;
6823;SDS011;58633;49.470;11.004;2023-04-03T13:43:30;1.92;;;1.70;;
6823;SDS011;58633;49.470;11.004;2023-04-03T13:48:37;2.35;;;1.70;;
6823;SDS011;58633;49.470;11.004;2023-04-03T13:51:27;3.80;;;1.77;;
6823;SDS011;58633;49.470;11.004;2023-04-03T13:53:59;1.60;;;1.50;;
6823;SDS011;58633;49.470;11.004;2023-04-03T13:56:30;3.45;;;2.17;;
6823;SDS011;58633;49.470;11.004;2023-04-03T14:01:50;2.53;;;1.83;;
6823;SDS011;58633;49.470;11.004;2023-04-03T14:04:29;2.50;;;1.83;;
6823;SDS011;58633;49.470;11.004;2023-04-03T14:06:57;1.98;;;1.55;;
6823;SDS011;58633;49.470;11.004;2023-04-03T14:09:24;2.30;;;1.70;;
6823;SDS011;58633;49.470;11.004;2023-04-03T14:11:53;2.20;;;1.55;;
6823;SDS011;58633;49.470;11.004;2023-04-03T14:14:23;3.83;;;1.92;;
6823;SDS011;58633;49.470;11.004;2023-04-03T14:16:56;2.50;;;1.90;;
6823;SDS011;58633;49.470;11.004;2023-04-03T14:19:34;1.60;;;1.50;;
6823;SDS011;58633;49.470;11.004;2023-04-03T14:22:05;6.55;;;1.60;;
6823;SDS011;58633;49.470;11.004;2023-04-03T14:24:42;1.42;;;1.33;;
6823;SDS011;58633;49.470;11.004;2023-04-03T14:27:15;1.45;;;1.35;;
6823;SDS011;58633;49.470;11.004;2023-04-03T14:29:43;1.90;;;1.63;;
6823;SDS011;58633;49.470;11.004;2023-04-03T14:32:11;1.98;;;1.60;;
6823;SDS011;58633;49.470;11.004;2023-04-03T14:34:38;4.55;;;1.42;;
6823;SDS011;58633;49.470;11.004;2023-04-03T14:37:04;1.92;;;1.63;;
6823;SDS011;58633;49.470;11.004;2023-04-03T14:39:30;2.00;;;1.48;;
6823;SDS011;58633;49.470;11.004;2023-04-03T14:41:56;2.50;;;2.05;;
6823;SDS011;58633;49.470;11.004;2023-04-03T14:44:21;2.92;;;1.33;;
6823;SDS011;58633;49.470;11.004;2023-04-03T14:46:48;2.47;;;1.52;;
6823;SDS011;58633;49.470;11.004;2023-04-03T14:49:14;2.60;;;1.70;;
6823;SDS011;58633;49.470;11.004;2023-04-03T14:51:50;6.05;;;1.77;;
6823;SDS011;58633;49.470;11.004;2023-04-03T14:54:18;3.13;;;1.65;;
6823;SDS011;58633;49.470;11.004;2023-04-03T14:56:50;2.20;;;1.73;;
6823;SDS011;58633;49.470;11.004;2023-04-03T14:59:16;1.90;;;1.67;;
6823;SDS011;58633;49.470;11.004;2023-04-03T15:01:44;1.75;;;1.60;;
6823;SDS011;58633;49.470;11.004;2023-04-03T15:04:14;3.95;;;1.75;;
6823;SDS011;58633;49.470;11.004;2023-04-03T15:06:41;1.83;;;1.40;;
6823;SDS011;58633;49.470;11.004;2023-04-03T15:09:21;2.63;;;1.40;;
6823;SDS011;58633;49.470;11.004;2023-04-03T15:11:49;3.20;;;1.55;;
6823;SDS011;58633;49.470;11.004;2023-04-03T15:14:16;3.42;;;1.75;;
6823;SDS011;58633;49.470;11.004;2023-04-03T15:16:42;3.75;;;1.48;;
6823;SDS011;58633;49.470;11.004;2023-04-03T15:19:08;1.85;;;1.73;;
6823;SDS011;58633;49.470;11.004;2023-04-03T15:21:33;3.28;;;1.70;;
6823;SDS011;58633;49.470;11.004;2023-04-03T15:23:59;3.15;;;1.70;;
6823;SDS011;58633;49.470;11.004;2023-04-03T15:26:25;1.48;;;1.38;;
6823;SDS011;58633;49.470;11.004;2023-04-03T15:28:50;2.25;;;1.52;;
6823;SDS011;58633;49.470;11.004;2023-04-03T15:31:16;1.50;;;1.40;;
6823;SDS011;58633;49.470;11.004;2023-04-03T15:33:42;1.85;;;1.70;;
6823;SDS011;58633;49.470;11.004;2023-04-03T15:36:08;3.58;;;1.33;;
6823;SDS011;58633;49.470;11.004;2023-04-03T15:38:33;2.40;;;1.60;;
6823;SDS011;58633;49.470;11.004;2023-04-03T15:40:59;1.60;;;1.50;;
6823;SDS011;58633;49.470;11.004;2023-04-03T15:43:25;1.70;;;1.60;;
6823;SDS011;58633;49.470;11.004;2023-04-03T15:45:51;2.58;;;1.67;;
6823;SDS011;58633;49.470;11.004;2023-04-03T15:48:17;1.63;;;1.50;;
6823;SDS011;58633;49.470;11.004;2023-04-03T15:50:43;2.03;;;1.83;;
6823;SDS011;58633;49.470;11.004;2023-04-03T15:53:09;2.55;;;1.70;;
6823;SDS011;58633;49.470;11.004;2023-04-03T15:55:35;1.58;;;1.48;;
6823;SDS011;58633;49.470;11.004;2023-04-03T15:58:03;1.88;;;1.70;;
6823;SDS011;58633;49.470;11.004;2023-04-03T16:00:29;1.73;;;1.50;;
6823;SDS011;58633;49.470;11.004;2023-04-03T16:02:58;2.63;;;2.10;;
6823;SDS011;58633;49.470;11.004;2023-04-03T16:05:29;2.20;;;1.80;;
6823;SDS011;58633;49.470;11.004;2023-04-03T16:07:55;1.92;;;1.65;;
6823;SDS011;58633;49.470;11.004;2023-04-03T16:10:21;1.60;;;1.50;;
6823;SDS011;58633;49.470;11.004;2023-04-03T16:12:46;2.17;;;1.60;;
6823;SDS011;58633;49.470;11.004;2023-04-03T16:15:12;2.40;;;1.73;;
6823;SDS011;58633;49.470;11.004;2023-04-03T16:17:37;2.47;;;1.83;;
6823;SDS011;58633;49.470;11.004;2023-04-03T16:20:06;3.42;;;1.48;;
6823;SDS011;58633;49.470;11.004;2023-04-03T16:22:33;3.92;;;1.80;;
6823;SDS011;58633;49.470;11.004;2023-04-03T16:24:59;3.22;;;1.77;;